createdAt,value
2018-11-21T00:01:14.225Z,79.80
2018-11-21T00:03:41.586Z,79.90
2018-11-21T00:06:08.924Z,80.00
2018-11-21T00:08:36.267Z,80.00
2018-11-21T00:11:03.801Z,79.90
2018-11-21T00:13:31.144Z,80.10
2018-11-21T00:15:58.494Z,79.80
2018-11-21T00:18:25.866Z,79.80
2018-11-21T00:20:53.229Z,79.70
2018-11-21T00:23:20.561Z,79.80
2018-11-21T00:25:47.890Z,79.90
2018-11-21T00:28:15.229Z,79.90
2018-11-21T00:30:42.569Z,80.20
2018-11-21T00:33:10.289Z,79.60
2018-11-21T00:35:37.625Z,79.60
2018-11-21T00:38:04.978Z,79.60
2018-11-21T00:40:32.340Z,79.80
2018-11-21T00:42:59.731Z,79.80
2018-11-21T00:45:27.081Z,79.70
2018-11-21T00:47:54.418Z,80.00
2018-11-21T00:50:21.794Z,79.80
2018-11-21T00:52:49.131Z,79.80
2018-11-21T00:55:16.468Z,79.70
2018-11-21T00:57:44.219Z,79.80
2018-11-21T01:00:11.564Z,79.90
2018-11-21T01:02:38.939Z,79.80
2018-11-21T01:05:06.839Z,79.80
2018-11-21T01:07:34.537Z,79.70
2018-11-21T01:10:01.909Z,79.90
2018-11-21T01:12:29.573Z,79.80
2018-11-21T01:14:56.946Z,79.70
2018-11-21T01:17:24.282Z,79.60
2018-11-21T01:19:51.638Z,79.80
2018-11-21T01:22:18.983Z,80.10
2018-11-21T01:24:46.342Z,80.20
2018-11-21T01:27:13.798Z,80.20
2018-11-21T01:29:41.145Z,80.20
2018-11-21T01:32:08.532Z,79.90
2018-11-21T01:34:35.886Z,79.80
2018-11-21T01:37:03.503Z,79.60
2018-11-21T01:39:30.843Z,79.60
2018-11-21T01:41:58.224Z,79.50
2018-11-21T01:44:25.576Z,79.50
2018-11-21T01:46:52.903Z,79.50
2018-11-21T01:49:20.501Z,79.20
2018-11-21T01:51:47.830Z,79.20
2018-11-21T01:54:15.187Z,79.40
2018-11-21T01:56:42.552Z,79.50
2018-11-21T01:59:09.919Z,79.70
2018-11-21T02:01:37.265Z,79.50
2018-11-21T02:04:04.969Z,79.50
2018-11-21T02:06:32.338Z,79.50
2018-11-21T02:08:59.680Z,79.40
2018-11-21T02:11:27.108Z,79.70
2018-11-21T02:13:54.477Z,79.80
2018-11-21T02:16:21.819Z,79.80
2018-11-21T02:18:49.508Z,79.80
2018-11-21T02:21:16.950Z,79.80
2018-11-21T02:23:44.547Z,80.40
2018-11-21T02:26:11.962Z,80.30
2018-11-21T02:28:39.453Z,80.40
2018-11-21T02:31:06.904Z,80.50
2018-11-21T02:33:34.430Z,80.30
2018-11-21T02:36:01.887Z,80.50
2018-11-21T02:38:29.359Z,80.50
2018-11-21T02:40:56.811Z,80.50
2018-11-21T02:43:24.290Z,80.50
2018-11-21T02:45:51.727Z,80.50
2018-11-21T02:48:19.222Z,80.30
2018-11-21T02:50:46.702Z,80.20
2018-11-21T02:53:14.159Z,80.40
2018-11-21T02:55:41.628Z,80.70
2018-11-21T02:58:09.113Z,80.60
2018-11-21T03:00:36.569Z,80.50
2018-11-21T03:03:04.085Z,80.20
2018-11-21T03:05:31.548Z,80.20
2018-11-21T03:07:59.039Z,80.40
2018-11-21T03:10:26.856Z,80.30
2018-11-21T03:12:54.299Z,80.30
2018-11-21T03:15:21.763Z,80.00
2018-11-21T03:17:49.203Z,80.20
2018-11-21T03:20:16.721Z,80.20
2018-11-21T03:22:44.170Z,80.30
2018-11-21T03:25:11.635Z,80.30
2018-11-21T03:27:39.077Z,80.10
2018-11-21T03:30:07.916Z,80.20
2018-11-21T03:32:35.481Z,80.20
2018-11-21T03:35:02.962Z,80.20
2018-11-21T03:37:30.413Z,80.10
2018-11-21T03:39:57.925Z,80.30
2018-11-21T03:42:25.401Z,79.90
2018-11-21T03:44:53.219Z,80.10
2018-11-21T03:47:20.709Z,80.50
2018-11-21T03:49:48.222Z,80.60
2018-11-21T03:52:15.671Z,80.60
2018-11-21T03:54:43.119Z,80.50
2018-11-21T03:57:10.591Z,80.40
2018-11-21T03:59:38.050Z,80.30
2018-11-21T04:02:05.548Z,80.50
2018-11-21T04:04:33.023Z,80.40
2018-11-21T04:07:00.475Z,80.40
2018-11-21T04:09:27.971Z,80.30
2018-11-21T04:11:55.417Z,80.30
2018-11-21T04:14:22.863Z,80.00
2018-11-21T04:16:50.307Z,80.10
2018-11-21T04:19:17.774Z,80.10
2018-11-21T04:21:45.218Z,80.30
2018-11-21T04:24:12.672Z,80.20
2018-11-21T04:26:40.201Z,80.20
2018-11-21T04:29:08.096Z,80.10
2018-11-21T04:31:35.531Z,79.90
2018-11-21T04:34:03.015Z,79.70
2018-11-21T04:36:30.476Z,79.80
2018-11-21T04:38:57.924Z,80.00
2018-11-21T04:41:25.398Z,80.20
2018-11-21T04:43:53.229Z,80.40
2018-11-21T04:46:20.710Z,80.30
2018-11-21T04:48:48.588Z,80.30
2018-11-21T04:51:16.031Z,80.20
2018-11-21T04:53:43.482Z,80.30
2018-11-21T04:56:11.025Z,80.40
2018-11-21T04:58:38.420Z,80.30
2018-11-21T05:01:05.890Z,80.40
2018-11-21T05:03:33.636Z,80.50
2018-11-21T05:06:01.111Z,80.20
2018-11-21T05:08:28.595Z,80.30
2018-11-21T05:10:56.080Z,80.40
2018-11-21T05:13:23.525Z,80.40
2018-11-21T05:15:50.979Z,80.30
2018-11-21T05:18:18.435Z,80.30
2018-11-21T05:20:45.868Z,80.30
2018-11-21T05:23:13.328Z,80.60
2018-11-21T05:25:40.772Z,80.20
2018-11-21T05:28:08.228Z,80.10
2018-11-21T05:30:35.691Z,80.30
2018-11-21T05:33:03.417Z,80.00
2018-11-21T05:35:30.927Z,80.20
2018-11-21T05:37:58.402Z,80.00
2018-11-21T05:40:25.854Z,80.20
2018-11-21T05:42:53.316Z,80.20
2018-11-21T05:45:20.780Z,80.10
2018-11-21T05:47:48.237Z,80.10
2018-11-21T05:50:15.717Z,79.90
2018-11-21T05:52:43.175Z,79.80
2018-11-21T05:55:10.681Z,80.00
2018-11-21T05:57:38.172Z,79.80
2018-11-21T06:00:09.579Z,79.60
2018-11-21T06:02:37.056Z,79.70
2018-11-21T06:05:04.741Z,79.70
2018-11-21T06:07:32.175Z,79.60
2018-11-21T06:09:59.660Z,79.70
2018-11-21T06:12:27.235Z,79.50
2018-11-21T06:14:54.813Z,79.40
2018-11-21T06:17:22.267Z,79.50
2018-11-21T06:19:49.793Z,79.40
2018-11-21T06:22:17.243Z,79.40
2018-11-21T06:24:44.750Z,79.30
2018-11-21T06:27:12.207Z,79.40
2018-11-21T06:29:39.658Z,79.30
2018-11-21T06:32:07.140Z,79.40
2018-11-21T06:34:34.599Z,79.80
2018-11-21T06:37:02.147Z,79.50
2018-11-21T06:39:29.687Z,79.30
2018-11-21T06:41:57.206Z,79.40
2018-11-21T06:44:25.543Z,79.10
2018-11-21T06:46:53.091Z,79.00
2018-11-21T06:49:20.641Z,78.90
2018-11-21T06:51:48.134Z,79.00
2018-11-21T06:54:15.588Z,79.00
2018-11-21T06:56:43.118Z,78.90
2018-11-21T06:59:10.585Z,79.00
2018-11-21T07:01:38.070Z,78.90
2018-11-21T07:04:05.549Z,79.00
2018-11-21T07:06:33.013Z,79.00
2018-11-21T07:09:00.500Z,78.80
2018-11-21T07:11:28.010Z,78.90
2018-11-21T07:13:55.449Z,79.00
2018-11-21T07:16:22.918Z,79.10
2018-11-21T07:18:50.434Z,79.00
2018-11-21T07:21:17.918Z,79.20
2018-11-21T07:23:45.594Z,79.20
2018-11-21T07:26:13.055Z,79.10
2018-11-21T07:28:40.499Z,78.70
2018-11-21T07:31:07.998Z,78.60
2018-11-21T07:33:35.470Z,78.90
2018-11-21T07:36:02.942Z,79.00
2018-11-21T07:38:30.431Z,79.10
2018-11-21T07:40:57.920Z,79.40
2018-11-21T07:43:25.441Z,79.10
2018-11-21T07:45:52.940Z,79.40
2018-11-21T07:48:20.738Z,79.60
2018-11-21T07:50:48.205Z,79.80
2018-11-21T07:53:15.688Z,79.70
2018-11-21T07:55:43.176Z,79.60
2018-11-21T07:58:10.674Z,79.50
2018-11-21T08:01:07.987Z,79.20
2018-11-21T08:03:35.470Z,79.20
2018-11-21T08:06:02.936Z,79.30
2018-11-21T08:08:30.430Z,79.30
2018-11-21T08:10:57.865Z,78.60
2018-11-21T08:13:25.320Z,78.50
2018-11-21T08:15:52.830Z,78.40
2018-11-21T08:18:20.248Z,78.10
2018-11-21T08:20:47.701Z,78.10
2018-11-21T08:23:15.178Z,78.10
2018-11-21T08:25:42.618Z,78.00
2018-11-21T08:28:10.092Z,78.20
2018-11-21T08:30:37.535Z,78.20
2018-11-21T08:33:05.048Z,78.10
2018-11-21T08:35:32.494Z,78.00
2018-11-21T08:37:59.975Z,77.50
2018-11-21T08:40:27.744Z,77.20
2018-11-21T08:42:55.235Z,77.00
2018-11-21T08:45:22.731Z,77.10
2018-11-21T08:47:50.201Z,77.20
2018-11-21T08:50:17.722Z,77.10
2018-11-21T08:52:45.154Z,76.90
2018-11-21T08:55:12.658Z,76.90
2018-11-21T08:57:40.142Z,76.90
2018-11-21T09:00:09.840Z,77.00
2018-11-21T09:02:37.312Z,77.20
2018-11-21T09:05:06.642Z,77.10
2018-11-21T09:07:34.178Z,76.20
2018-11-21T09:10:01.666Z,76.30
2018-11-21T09:12:29.580Z,76.60
2018-11-21T09:14:56.600Z,76.60
2018-11-21T09:17:24.084Z,76.10
2018-11-21T09:19:51.567Z,76.30
2018-11-21T09:22:19.084Z,76.60
2018-11-21T09:24:46.571Z,76.60
2018-11-21T09:27:14.205Z,76.30
2018-11-21T09:29:41.680Z,75.80
2018-11-21T09:32:09.145Z,75.40
2018-11-21T09:34:36.676Z,75.70
2018-11-21T09:37:04.371Z,76.10
2018-11-21T09:39:31.817Z,75.70
2018-11-21T09:41:59.302Z,75.30
2018-11-21T09:44:26.767Z,74.90
2018-11-21T09:46:54.228Z,74.90
2018-11-21T09:49:21.726Z,74.80
2018-11-21T09:51:49.183Z,73.90
2018-11-21T09:54:16.634Z,74.10
2018-11-21T09:56:44.110Z,74.30
2018-11-21T09:59:15.221Z,74.40
2018-11-21T10:02:19.708Z,74.10
2018-11-21T10:04:47.165Z,74.70
2018-11-21T10:07:14.599Z,74.90
2018-11-21T10:09:42.503Z,74.80
2018-11-21T10:12:09.933Z,74.80
2018-11-21T10:14:37.411Z,74.80
2018-11-21T10:17:04.900Z,74.70
2018-11-21T10:19:33.344Z,74.50
2018-11-21T10:22:00.955Z,74.00
2018-11-21T10:24:28.463Z,74.00
2018-11-21T10:26:55.994Z,74.20
2018-11-21T10:29:23.461Z,74.00
2018-11-21T10:31:50.967Z,74.00
2018-11-21T10:34:18.422Z,73.90
2018-11-21T10:36:45.893Z,73.80
2018-11-21T10:39:13.361Z,73.80
2018-11-21T10:41:40.934Z,73.60
2018-11-21T10:44:08.935Z,73.60
2018-11-21T10:46:36.778Z,73.80
2018-11-21T10:49:04.509Z,74.30
2018-11-21T10:51:31.978Z,74.10
2018-11-21T10:53:59.457Z,74.40
2018-11-21T10:56:27.040Z,74.20
2018-11-21T10:58:54.421Z,74.10
2018-11-21T11:01:21.930Z,74.50
2018-11-21T11:03:49.370Z,74.20
2018-11-21T11:06:16.918Z,74.30
2018-11-21T11:08:44.405Z,74.10
2018-11-21T11:11:11.857Z,73.40
2018-11-21T11:13:39.325Z,72.90
2018-11-21T11:16:07.788Z,73.50
2018-11-21T11:18:34.297Z,73.30
2018-11-21T11:21:01.811Z,73.60
2018-11-21T11:23:29.260Z,72.90
2018-11-21T11:25:56.731Z,72.90
2018-11-21T11:28:24.297Z,73.40
2018-11-21T11:30:51.744Z,73.00
2018-11-21T11:33:19.296Z,73.30
2018-11-21T11:35:46.781Z,73.60
2018-11-21T11:38:14.627Z,73.80
2018-11-21T11:40:42.161Z,74.20
2018-11-21T11:43:09.658Z,73.90
2018-11-21T11:45:37.136Z,73.60
2018-11-21T11:48:04.892Z,73.70
2018-11-21T11:50:32.387Z,74.10
2018-11-21T11:52:59.867Z,73.60
2018-11-21T11:55:27.333Z,73.40
2018-11-21T11:57:54.911Z,73.60
2018-11-21T12:00:22.415Z,73.50
2018-11-21T12:02:49.936Z,73.50
2018-11-21T12:05:17.434Z,73.90
2018-11-21T12:07:44.919Z,74.00
2018-11-21T12:10:12.386Z,73.80
2018-11-21T12:12:40.275Z,73.50
2018-11-21T12:15:07.393Z,73.70
2018-11-21T12:17:34.883Z,73.60
2018-11-21T12:20:02.427Z,73.60
2018-11-21T12:22:29.890Z,73.50
2018-11-21T12:24:57.359Z,73.50
2018-11-21T12:27:24.828Z,73.30
2018-11-21T12:29:52.316Z,73.50
2018-11-21T12:32:19.855Z,73.80
2018-11-21T12:34:47.313Z,73.70
2018-11-21T12:37:14.798Z,73.90
2018-11-21T12:39:42.299Z,73.90
2018-11-21T12:42:10.117Z,73.70
2018-11-21T12:44:37.618Z,74.00
2018-11-21T12:47:05.226Z,73.70
2018-11-21T12:49:32.798Z,73.80
2018-11-21T12:52:00.301Z,73.90
2018-11-21T12:54:27.633Z,73.60
2018-11-21T12:56:55.113Z,73.70
2018-11-21T12:59:23.021Z,73.80
2018-11-21T13:01:50.541Z,73.90
2018-11-21T13:04:18.013Z,73.70
2018-11-21T13:06:45.576Z,74.00
2018-11-21T13:09:12.985Z,73.90
2018-11-21T13:11:40.461Z,74.20
2018-11-21T13:14:07.903Z,74.40
2018-11-21T13:16:35.393Z,73.90
2018-11-21T13:19:02.839Z,74.20
2018-11-21T13:21:30.324Z,74.20
2018-11-21T13:23:57.810Z,73.90
2018-11-21T13:26:25.268Z,73.60
2018-11-21T13:28:52.769Z,73.90
2018-11-21T13:31:20.236Z,74.00
2018-11-21T13:33:48.124Z,74.10
2018-11-21T13:36:15.571Z,74.20
2018-11-21T13:38:43.046Z,74.50
2018-11-21T13:41:10.545Z,74.10
2018-11-21T13:43:38.021Z,73.90
2018-11-21T13:46:05.552Z,73.90
2018-11-21T13:48:32.996Z,73.90
2018-11-21T13:51:00.447Z,73.90
2018-11-21T13:53:27.953Z,73.50
2018-11-21T13:55:55.406Z,73.70
2018-11-21T13:58:22.916Z,73.70
2018-11-21T14:00:50.385Z,74.30
2018-11-21T14:03:17.855Z,74.70
2018-11-21T14:05:45.329Z,74.70
2018-11-21T14:08:12.767Z,74.80
2018-11-21T14:10:40.211Z,74.40
2018-11-21T14:13:07.702Z,74.40
2018-11-21T14:15:35.150Z,74.10
2018-11-21T14:18:02.683Z,74.40
2018-11-21T14:20:30.521Z,74.70
2018-11-21T14:22:58.010Z,75.10
2018-11-21T14:25:25.471Z,75.30
2018-11-21T14:27:52.976Z,75.50
2018-11-21T14:30:20.457Z,75.40
2018-11-21T14:32:47.914Z,75.20
2018-11-21T14:35:15.404Z,74.60
2018-11-21T14:37:42.861Z,74.80
2018-11-21T14:40:11.845Z,74.80
2018-11-21T14:42:39.324Z,74.80
2018-11-21T14:45:08.736Z,74.50
2018-11-21T14:47:36.194Z,74.50
2018-11-21T14:50:11.167Z,74.20
2018-11-21T14:52:38.642Z,74.60
2018-11-21T14:55:06.274Z,75.00
2018-11-21T14:57:33.771Z,74.80
2018-11-21T15:00:01.225Z,74.90
2018-11-21T15:02:28.706Z,75.00
2018-11-21T15:04:56.128Z,75.30
2018-11-21T15:07:23.652Z,75.40
2018-11-21T15:09:51.124Z,75.40
2018-11-21T15:12:18.594Z,75.60
2018-11-21T15:14:46.058Z,75.50
2018-11-21T15:17:13.543Z,75.30
2018-11-21T15:19:41.024Z,75.20
2018-11-21T15:22:08.539Z,75.40
2018-11-21T15:24:36.013Z,75.70
2018-11-21T15:27:03.501Z,75.90
2018-11-21T15:29:30.959Z,75.60
2018-11-21T15:31:58.771Z,75.40
2018-11-21T15:34:26.243Z,75.80
2018-11-21T15:36:53.791Z,76.60
2018-11-21T15:39:21.255Z,76.10
2018-11-21T15:41:48.746Z,76.20
2018-11-21T15:44:16.230Z,76.90
2018-11-21T15:46:45.783Z,77.00
2018-11-21T15:49:11.158Z,76.80
2018-11-21T15:51:38.653Z,77.10
2018-11-21T15:54:06.429Z,76.80
2018-11-21T15:56:33.944Z,76.80
2018-11-21T15:59:01.420Z,76.60
2018-11-21T16:01:28.965Z,76.60
2018-11-21T16:03:56.444Z,76.60
2018-11-21T16:06:23.938Z,76.40
2018-11-21T16:08:51.395Z,76.30
2018-11-21T16:11:18.917Z,76.20
2018-11-21T16:13:46.395Z,76.30
2018-11-21T16:16:13.849Z,76.20
2018-11-21T16:18:41.333Z,75.90
2018-11-21T16:21:08.826Z,75.90
2018-11-21T16:23:36.320Z,75.90
2018-11-21T16:26:03.979Z,76.10
2018-11-21T16:28:31.502Z,76.10
2018-11-21T16:30:58.930Z,75.80
2018-11-21T16:33:26.484Z,75.80
2018-11-21T16:35:53.964Z,75.60
2018-11-21T16:38:21.455Z,75.80
2018-11-21T16:40:48.957Z,75.80
2018-11-21T16:43:16.437Z,75.70
2018-11-21T16:45:43.915Z,75.60
2018-11-21T16:48:11.433Z,75.60
2018-11-21T16:50:38.927Z,75.40
2018-11-21T16:53:06.400Z,75.50
2018-11-21T16:55:33.908Z,75.30
2018-11-21T16:58:01.419Z,75.30
2018-11-21T17:00:28.955Z,75.30
2018-11-21T17:02:56.460Z,75.10
2018-11-21T17:05:24.095Z,74.70
2018-11-21T17:07:51.568Z,74.70
2018-11-21T17:10:19.123Z,74.90
2018-11-21T17:12:46.644Z,74.90
2018-11-21T17:15:14.169Z,74.90
2018-11-21T17:17:41.735Z,74.70
2018-11-21T17:20:10.926Z,74.90
2018-11-21T17:22:38.402Z,75.20
2018-11-21T17:25:08.352Z,75.10
2018-11-21T17:27:36.247Z,74.90
2018-11-21T17:30:05.140Z,74.90
2018-11-21T17:32:32.659Z,74.70
2018-11-21T17:35:00.191Z,74.50
2018-11-21T17:37:27.699Z,74.40
2018-11-21T17:39:55.211Z,74.50
2018-11-21T17:42:22.758Z,74.60
2018-11-21T17:44:50.343Z,74.60
2018-11-21T17:47:17.850Z,74.50
2018-11-21T17:52:12.786Z,74.20
2018-11-21T17:54:40.792Z,74.30
2018-11-21T17:57:08.333Z,74.70
2018-11-21T17:59:35.842Z,74.70
2018-11-21T18:02:03.315Z,74.60
2018-11-21T18:04:30.827Z,74.50
2018-11-21T18:06:58.325Z,74.40
2018-11-21T18:09:25.839Z,74.30
2018-11-21T18:11:53.297Z,74.30
2018-11-21T18:14:20.775Z,74.40
2018-11-21T18:16:48.246Z,74.60
2018-11-21T18:19:16.147Z,75.10
2018-11-21T18:21:43.604Z,74.80
2018-11-21T18:24:11.129Z,74.80
2018-11-21T18:26:38.588Z,74.40
2018-11-21T18:29:08.499Z,74.30
2018-11-21T18:31:33.570Z,74.60
2018-11-21T18:34:01.104Z,74.70
2018-11-21T18:36:28.560Z,74.60
2018-11-21T18:38:56.130Z,74.70
2018-11-21T18:41:23.563Z,74.70
2018-11-21T18:43:51.373Z,74.50
2018-11-21T18:46:18.883Z,74.30
2018-11-21T18:48:46.423Z,74.20
2018-11-21T18:51:13.877Z,74.50
2018-11-21T18:53:41.698Z,74.70
2018-11-21T18:56:25.947Z,74.60
2018-11-21T18:59:17.807Z,74.80
2018-11-21T19:01:46.774Z,75.00
2018-11-21T19:04:12.831Z,75.10
2018-11-21T19:06:40.338Z,75.20
2018-11-21T19:09:11.899Z,75.10
2018-11-21T19:11:39.493Z,75.10
2018-11-21T19:14:06.960Z,74.90
2018-11-21T19:16:34.455Z,74.70
2018-11-21T19:19:01.913Z,74.70
2018-11-21T19:21:29.383Z,75.00
2018-11-21T19:23:56.974Z,75.40
2018-11-21T19:26:24.472Z,75.20
2018-11-21T19:28:52.020Z,75.40
2018-11-21T19:31:19.536Z,75.60
2018-11-21T19:33:46.997Z,75.50
2018-11-21T19:36:14.454Z,75.60
2018-11-21T19:38:41.965Z,75.50
2018-11-21T19:41:10.019Z,75.10
2018-11-21T19:43:37.526Z,75.30
2018-11-21T19:46:05.333Z,75.20
2018-11-21T19:48:32.947Z,75.00
2018-11-21T19:51:00.387Z,74.80
2018-11-21T19:53:27.869Z,74.80
2018-11-21T19:55:55.330Z,74.80
2018-11-21T19:58:22.814Z,74.90
2018-11-21T20:00:50.296Z,75.00
2018-11-21T20:03:17.801Z,74.70
2018-11-21T20:05:45.266Z,74.80
2018-11-21T20:08:12.807Z,74.80
2018-11-21T20:10:40.303Z,74.60
2018-11-21T20:13:07.756Z,74.40
2018-11-21T20:15:35.244Z,74.40
2018-11-21T20:18:02.689Z,74.50
2018-11-21T20:20:30.208Z,74.50
2018-11-21T20:22:57.773Z,74.10
2018-11-21T20:25:25.633Z,74.20
2018-11-21T20:27:53.084Z,74.20
2018-11-21T20:30:20.576Z,74.20
2018-11-21T20:32:48.082Z,74.50
2018-11-21T20:35:15.825Z,74.60
2018-11-21T20:37:43.894Z,74.50
2018-11-21T20:40:12.432Z,74.50
2018-11-21T20:42:39.923Z,74.50
2018-11-21T20:45:11.477Z,74.40
2018-11-21T20:47:38.963Z,74.60
2018-11-21T20:50:06.809Z,74.50
2018-11-21T20:52:34.281Z,74.70
2018-11-21T20:55:01.780Z,74.50
2018-11-21T20:57:29.261Z,74.40
2018-11-21T20:59:56.715Z,74.30
2018-11-21T21:02:24.256Z,74.30
2018-11-21T21:04:51.751Z,74.30
2018-11-21T21:07:22.500Z,74.10
2018-11-21T21:09:46.714Z,74.40
2018-11-21T21:12:14.185Z,74.10
2018-11-21T21:14:41.645Z,74.20
2018-11-21T21:17:09.137Z,74.70
2018-11-21T21:19:36.669Z,74.80
2018-11-21T21:22:04.672Z,75.20
2018-11-21T21:24:32.517Z,75.00
2018-11-21T21:27:00.297Z,74.70
2018-11-21T21:29:27.781Z,74.70
2018-11-21T21:31:55.282Z,74.70
2018-11-21T21:34:22.738Z,74.90
2018-11-21T21:36:50.218Z,75.00
2018-11-21T21:39:17.695Z,75.00
2018-11-21T21:41:45.152Z,74.90
2018-11-21T21:44:12.633Z,75.10
2018-11-21T21:46:40.082Z,75.10
2018-11-21T21:49:07.568Z,75.10
2018-11-21T21:51:35.025Z,75.10
2018-11-21T21:54:02.502Z,75.10
2018-11-21T21:56:29.953Z,75.20
2018-11-21T21:58:57.437Z,75.30
2018-11-21T22:01:24.926Z,75.30
2018-11-21T22:03:52.403Z,75.40
2018-11-21T22:06:19.872Z,75.30
2018-11-21T22:08:47.326Z,75.20
2018-11-21T22:11:14.812Z,75.00
2018-11-21T22:13:42.276Z,74.90
2018-11-21T22:16:09.749Z,75.10
2018-11-21T22:18:37.222Z,75.40
2018-11-21T22:21:04.703Z,75.60
2018-11-21T22:23:32.195Z,75.40
2018-11-21T22:25:59.668Z,75.20
2018-11-21T22:28:27.504Z,75.20
2018-11-21T22:30:54.959Z,75.10
2018-11-21T22:33:22.469Z,75.20
2018-11-21T22:35:49.933Z,75.20
2018-11-21T22:38:17.393Z,74.90
2018-11-21T22:40:44.897Z,74.60
2018-11-21T22:43:12.358Z,75.00
2018-11-21T22:45:39.879Z,75.30
2018-11-21T22:48:07.369Z,75.30
2018-11-21T22:50:34.818Z,75.80
2018-11-21T22:53:02.292Z,76.10
2018-11-21T22:55:29.749Z,76.10
2018-11-21T22:57:57.186Z,76.10
2018-11-21T23:00:24.685Z,76.00
2018-11-21T23:02:52.124Z,75.80
2018-11-21T23:05:19.580Z,75.80
2018-11-21T23:07:47.062Z,75.90
2018-11-21T23:10:14.540Z,76.00
2018-11-21T23:12:41.994Z,76.00
2018-11-21T23:15:10.112Z,76.00
2018-11-21T23:17:37.573Z,75.90
2018-11-21T23:20:06.919Z,76.10
2018-11-21T23:22:34.377Z,75.90
2018-11-21T23:25:01.877Z,76.10
2018-11-21T23:27:29.414Z,76.20
2018-11-21T23:29:57.020Z,76.20
2018-11-21T23:32:24.835Z,76.30
2018-11-21T23:34:52.284Z,76.20
2018-11-21T23:37:19.768Z,75.80
2018-11-21T23:39:47.234Z,76.00
2018-11-21T23:42:14.721Z,76.30
2018-11-21T23:44:42.557Z,76.60
2018-11-21T23:47:10.414Z,76.70
2018-11-21T23:49:37.897Z,76.60
2018-11-21T23:52:05.354Z,76.50
2018-11-21T23:54:32.814Z,76.50
2018-11-21T23:57:15.899Z,76.60
2018-11-21T23:59:27.771Z,76.50
